Nearby METAR Reports

 

KLMT - Klamath Falls, Oregon, USA
Distance from station: WNW 15mi, 25km
Updated: 12/13/2018 4:53pm
Clear
Clear
 Wind from NNW
Wind: NNW 6 mph , 9 km/h
Temperature: 34°F , 1°C
Wind Chill: 29°F , -2°C
Dew Point: 27°F , -3°C
Humidity: 75%
Barometer: 30.16 inHg , 1021.3 hPa
Clouds: Clear
Visibility: 9 miles , 14 km
2018/12/14 00:53 KLMT 140053Z 34005KT 9SM CLR 01/M03 A3016 RMK AO2 SLP231 T00111028
KLKV - Lakeview, Oregon, USA
Distance from station: E 53mi, 85km
Updated: 12/13/2018 4:53pm
Clear
Clear
 Wind from ENE
Wind: ENE 6 mph , 9 km/h
Temperature: 27°F , -3°C
Wind Chill: 20°F , -7°C
Dew Point: 21°F , -6°C
Humidity: 80%
Barometer: 30.22 inHg , 1023.4 hPa
Clouds: Clear
Visibility: 10 miles , 16 km
2018/12/14 00:53 KLKV 140053Z AUTO 07005KT 10SM CLR M03/M06 A3022 RMK AO2 SLP699 T10281061 FZRANO
 
KSIY - Montague/Siskiyo, California, USA
Distance from station: WSW 58mi, 93km
Updated: 12/13/2018 4:53pm
Clear
Clear
 Wind from WSW
Wind: WSW 3 mph , 6 km/h
Temperature: 41°F , 5°C
Dew Point: 28°F , -2°C
Humidity: 61%
Barometer: 30.16 inHg , 1021.3 hPa
Clouds: Clear
Visibility: 10 miles , 16 km
2018/12/14 00:53 KSIY 140053Z AUTO 25003KT 10SM CLR 05/M02 A3016 RMK AO2 SLP240 T00501022
KAAT - Alturas, California, USA
Distance from station: SE 61mi, 98km
Updated: 12/13/2018 4:55pm
Clear
Clear
 Wind from calm
Wind: Calm
Temperature: 37°F , 3°C
Dew Point: 23°F , -5°C
Humidity: 56%
Barometer: 30.21 inHg , 1023 hPa
Clouds: Clear
Visibility: 10 miles , 16 km
2018/12/14 00:55 KAAT 140055Z AUTO 00000KT 10SM CLR 03/M05 A3021 RMK AO2 SLP250 T00331050
 
KMHS - Mount Shasta, California, USA
Distance from station: SW 70mi, 113km
Updated: 12/13/2018 4:56pm
Clear
Clear
 Wind from calm
Wind: Calm
Temperature: 45°F , 7°C
Dew Point: 23°F , -5°C
Humidity: 42%
Barometer: 30.17 inHg , 1021.7 hPa
Clouds: Clear
Visibility: 10 miles , 16 km
2018/12/14 00:56 KMHS 140056Z AUTO 00000KT 10SM CLR 07/M05 A3017 RMK AO2 SLP248 T00671050
KMFR - Medford, Oregon, USA
Distance from station: WNW 76mi, 123km
Updated: 12/13/2018 4:53pm
Clear
Clear
 Wind from calm
Wind: Calm
Temperature: 45°F , 7°C
Dew Point: 36°F , 2°C
Humidity: 71%
Barometer: 30.09 inHg , 1019 hPa
Clouds: Clear
Visibility: 10 miles , 16 km
2018/12/14 00:53 KMFR 140053Z 00000KT 10SM CLR 07/02 A3009 RMK AO2 SLP195 T00720022